Weather at Portland International Jetport

Public forecast

Using degrees Fahrenheit for public forecast. Weather courtesy of forecast.io.

Current aviation weather report (METAR) for Portland International Jetport

Retrieved 2021/12/08 10:51 UTC (46 minutes ago):

KPWM 081051Z 02007KT 10SM BKN048 BKN120 OVC150 M03/M09 A3019 RMK AO2 SLP225 T10281094

Aviation forecast (TAF) for Portland International Jetport

Retrieved 2021/12/08 06:30 UTC (5 hours ago):

TAF KPWM 080529Z 0806/0906 00000KT P6SM BKN250 FM081600 VRB04KT 3SM -SN BR OVC040 FM081800 VRB04KT 3SM -SN BR OVC020 FM090100 02006KT P6SM BKN040